sensor_id;sensor_type;location;lat;lon;timestamp;P1;durP1;ratioP1;P2;durP2;ratioP2
84266;SDS011;74414;51.098;13.716;2024-02-26T00:00:10;19.80;;;10.57;;
84266;SDS011;74414;51.098;13.716;2024-02-26T00:02:37;20.83;;;10.52;;
84266;SDS011;74414;51.098;13.716;2024-02-26T00:05:06;21.67;;;11.02;;
84266;SDS011;74414;51.098;13.716;2024-02-26T00:07:32;22.63;;;10.25;;
84266;SDS011;74414;51.098;13.716;2024-02-26T00:09:57;19.58;;;10.88;;
84266;SDS011;74414;51.098;13.716;2024-02-26T00:12:22;17.93;;;10.33;;
84266;SDS011;74414;51.098;13.716;2024-02-26T00:14:48;19.60;;;10.20;;
84266;SDS011;74414;51.098;13.716;2024-02-26T00:17:14;16.40;;;9.50;;
84266;SDS011;74414;51.098;13.716;2024-02-26T00:19:40;21.02;;;10.20;;
84266;SDS011;74414;51.098;13.716;2024-02-26T00:22:06;20.75;;;11.27;;
84266;SDS011;74414;51.098;13.716;2024-02-26T00:24:31;24.67;;;11.07;;
84266;SDS011;74414;51.098;13.716;2024-02-26T00:26:57;21.77;;;10.33;;
84266;SDS011;74414;51.098;13.716;2024-02-26T00:29:22;23.73;;;12.10;;
84266;SDS011;74414;51.098;13.716;2024-02-26T00:31:48;24.80;;;13.13;;
84266;SDS011;74414;51.098;13.716;2024-02-26T00:34:13;19.88;;;10.45;;
84266;SDS011;74414;51.098;13.716;2024-02-26T00:36:39;19.43;;;11.73;;
84266;SDS011;74414;51.098;13.716;2024-02-26T00:39:04;19.40;;;10.90;;
84266;SDS011;74414;51.098;13.716;2024-02-26T00:41:29;17.70;;;10.23;;
84266;SDS011;74414;51.098;13.716;2024-02-26T00:43:55;20.10;;;10.90;;
84266;SDS011;74414;51.098;13.716;2024-02-26T00:46:20;18.87;;;10.07;;
84266;SDS011;74414;51.098;13.716;2024-02-26T00:48:45;16.73;;;10.10;;
84266;SDS011;74414;51.098;13.716;2024-02-26T00:51:11;18.17;;;9.00;;
84266;SDS011;74414;51.098;13.716;2024-02-26T00:53:36;19.60;;;9.68;;
84266;SDS011;74414;51.098;13.716;2024-02-26T00:56:01;22.83;;;11.07;;
84266;SDS011;74414;51.098;13.716;2024-02-26T00:58:27;21.15;;;11.02;;
84266;SDS011;74414;51.098;13.716;2024-02-26T01:00:52;20.35;;;10.02;;
84266;SDS011;74414;51.098;13.716;2024-02-26T01:03:18;19.90;;;10.63;;
84266;SDS011;74414;51.098;13.716;2024-02-26T01:05:44;19.63;;;9.98;;
84266;SDS011;74414;51.098;13.716;2024-02-26T01:08:11;20.58;;;10.55;;
84266;SDS011;74414;51.098;13.716;2024-02-26T01:10:36;22.38;;;10.60;;
84266;SDS011;74414;51.098;13.716;2024-02-26T01:13:03;22.75;;;12.15;;
84266;SDS011;74414;51.098;13.716;2024-02-26T01:15:28;21.38;;;11.55;;
84266;SDS011;74414;51.098;13.716;2024-02-26T01:17:53;22.02;;;11.05;;
84266;SDS011;74414;51.098;13.716;2024-02-26T01:20:20;19.83;;;11.02;;
84266;SDS011;74414;51.098;13.716;2024-02-26T01:22:46;22.88;;;11.60;;
84266;SDS011;74414;51.098;13.716;2024-02-26T01:25:12;23.13;;;11.30;;
84266;SDS011;74414;51.098;13.716;2024-02-26T01:27:38;22.02;;;11.38;;
84266;SDS011;74414;51.098;13.716;2024-02-26T01:30:04;24.48;;;11.77;;
84266;SDS011;74414;51.098;13.716;2024-02-26T01:32:31;22.15;;;11.85;;
84266;SDS011;74414;51.098;13.716;2024-02-26T01:34:56;27.30;;;11.73;;
84266;SDS011;74414;51.098;13.716;2024-02-26T01:37:22;23.33;;;11.45;;
84266;SDS011;74414;51.098;13.716;2024-02-26T01:39:48;23.77;;;12.13;;
84266;SDS011;74414;51.098;13.716;2024-02-26T01:42:13;22.67;;;11.43;;
84266;SDS011;74414;51.098;13.716;2024-02-26T01:44:39;21.80;;;11.15;;
84266;SDS011;74414;51.098;13.716;2024-02-26T01:47:05;24.35;;;11.70;;
84266;SDS011;74414;51.098;13.716;2024-02-26T01:49:33;24.83;;;11.60;;
84266;SDS011;74414;51.098;13.716;2024-02-26T01:52:00;21.88;;;10.93;;
84266;SDS011;74414;51.098;13.716;2024-02-26T01:54:25;20.20;;;10.40;;
84266;SDS011;74414;51.098;13.716;2024-02-26T01:56:51;19.17;;;10.45;;
84266;SDS011;74414;51.098;13.716;2024-02-26T01:59:16;21.50;;;11.38;;
84266;SDS011;74414;51.098;13.716;2024-02-26T02:01:44;19.00;;;10.40;;
84266;SDS011;74414;51.098;13.716;2024-02-26T02:06:39;21.70;;;10.20;;
84266;SDS011;74414;51.098;13.716;2024-02-26T02:09:07;17.77;;;9.13;;
84266;SDS011;74414;51.098;13.716;2024-02-26T02:11:34;18.02;;;8.98;;
84266;SDS011;74414;51.098;13.716;2024-02-26T02:14:00;20.48;;;10.13;;
84266;SDS011;74414;51.098;13.716;2024-02-26T02:16:26;23.92;;;10.40;;
84266;SDS011;74414;51.098;13.716;2024-02-26T02:18:52;19.08;;;10.10;;
84266;SDS011;74414;51.098;13.716;2024-02-26T02:21:18;22.80;;;11.15;;
84266;SDS011;74414;51.098;13.716;2024-02-26T02:23:44;20.08;;;10.20;;
84266;SDS011;74414;51.098;13.716;2024-02-26T02:26:12;19.25;;;9.52;;
84266;SDS011;74414;51.098;13.716;2024-02-26T02:28:39;21.23;;;11.35;;
84266;SDS011;74414;51.098;13.716;2024-02-26T02:31:05;17.15;;;9.95;;
84266;SDS011;74414;51.098;13.716;2024-02-26T02:33:31;22.52;;;11.95;;
84266;SDS011;74414;51.098;13.716;2024-02-26T02:35:59;18.08;;;9.45;;
84266;SDS011;74414;51.098;13.716;2024-02-26T02:38:24;20.02;;;9.98;;
84266;SDS011;74414;51.098;13.716;2024-02-26T02:40:54;21.25;;;10.50;;
84266;SDS011;74414;51.098;13.716;2024-02-26T02:43:19;18.73;;;9.63;;
84266;SDS011;74414;51.098;13.716;2024-02-26T02:45:45;18.15;;;9.55;;
84266;SDS011;74414;51.098;13.716;2024-02-26T02:48:10;20.58;;;10.20;;
84266;SDS011;74414;51.098;13.716;2024-02-26T02:50:36;19.00;;;10.10;;
84266;SDS011;74414;51.098;13.716;2024-02-26T02:53:02;21.75;;;10.68;;
84266;SDS011;74414;51.098;13.716;2024-02-26T02:55:27;22.33;;;10.30;;
84266;SDS011;74414;51.098;13.716;2024-02-26T02:57:53;19.02;;;9.18;;
84266;SDS011;74414;51.098;13.716;2024-02-26T03:00:19;22.70;;;11.23;;
84266;SDS011;74414;51.098;13.716;2024-02-26T03:02:44;23.35;;;12.07;;
84266;SDS011;74414;51.098;13.716;2024-02-26T03:05:10;21.75;;;10.95;;
84266;SDS011;74414;51.098;13.716;2024-02-26T03:07:35;22.35;;;11.60;;
84266;SDS011;74414;51.098;13.716;2024-02-26T03:10:01;22.00;;;11.55;;
84266;SDS011;74414;51.098;13.716;2024-02-26T03:12:26;26.42;;;12.43;;
84266;SDS011;74414;51.098;13.716;2024-02-26T03:14:53;25.30;;;12.32;;
84266;SDS011;74414;51.098;13.716;2024-02-26T03:17:19;24.10;;;12.18;;
84266;SDS011;74414;51.098;13.716;2024-02-26T03:19:46;26.20;;;12.38;;
84266;SDS011;74414;51.098;13.716;2024-02-26T03:22:12;22.55;;;11.68;;
84266;SDS011;74414;51.098;13.716;2024-02-26T03:24:38;22.23;;;11.55;;
84266;SDS011;74414;51.098;13.716;2024-02-26T03:27:04;20.38;;;11.23;;
84266;SDS011;74414;51.098;13.716;2024-02-26T03:29:34;20.92;;;9.82;;
84266;SDS011;74414;51.098;13.716;2024-02-26T03:32:00;20.88;;;9.45;;
84266;SDS011;74414;51.098;13.716;2024-02-26T03:34:25;22.27;;;12.43;;
84266;SDS011;74414;51.098;13.716;2024-02-26T03:36:51;19.50;;;11.15;;
84266;SDS011;74414;51.098;13.716;2024-02-26T03:39:17;21.20;;;10.73;;
84266;SDS011;74414;51.098;13.716;2024-02-26T03:41:42;24.00;;;11.97;;
84266;SDS011;74414;51.098;13.716;2024-02-26T03:44:07;20.93;;;10.93;;
84266;SDS011;74414;51.098;13.716;2024-02-26T03:46:32;22.50;;;10.83;;
84266;SDS011;74414;51.098;13.716;2024-02-26T03:48:58;22.02;;;10.82;;
84266;SDS011;74414;51.098;13.716;2024-02-26T03:51:23;19.07;;;10.43;;
84266;SDS011;74414;51.098;13.716;2024-02-26T03:53:48;20.80;;;10.77;;
84266;SDS011;74414;51.098;13.716;2024-02-26T03:56:14;20.67;;;9.73;;
84266;SDS011;74414;51.098;13.716;2024-02-26T03:58:39;18.30;;;10.20;;
84266;SDS011;74414;51.098;13.716;2024-02-26T04:01:07;22.77;;;9.98;;
84266;SDS011;74414;51.098;13.716;2024-02-26T04:03:32;14.52;;;8.68;;
84266;SDS011;74414;51.098;13.716;2024-02-26T04:05:58;20.30;;;9.55;;
84266;SDS011;74414;51.098;13.716;2024-02-26T04:08:23;19.90;;;9.90;;
84266;SDS011;74414;51.098;13.716;2024-02-26T04:10:48;20.30;;;10.30;;
84266;SDS011;74414;51.098;13.716;2024-02-26T04:13:14;22.37;;;9.97;;
84266;SDS011;74414;51.098;13.716;2024-02-26T04:15:39;18.77;;;9.85;;
84266;SDS011;74414;51.098;13.716;2024-02-26T04:18:05;21.15;;;9.88;;
84266;SDS011;74414;51.098;13.716;2024-02-26T04:20:30;18.92;;;10.07;;
84266;SDS011;74414;51.098;13.716;2024-02-26T04:22:56;25.63;;;10.27;;
84266;SDS011;74414;51.098;13.716;2024-02-26T04:25:21;20.47;;;10.07;;
84266;SDS011;74414;51.098;13.716;2024-02-26T04:27:46;18.77;;;10.03;;
84266;SDS011;74414;51.098;13.716;2024-02-26T04:30:11;20.17;;;10.43;;
84266;SDS011;74414;51.098;13.716;2024-02-26T04:32:37;18.35;;;9.70;;
84266;SDS011;74414;51.098;13.716;2024-02-26T04:35:02;18.20;;;9.97;;
84266;SDS011;74414;51.098;13.716;2024-02-26T04:37:28;20.95;;;10.40;;
84266;SDS011;74414;51.098;13.716;2024-02-26T04:39:59;20.58;;;10.00;;
84266;SDS011;74414;51.098;13.716;2024-02-26T04:42:25;20.65;;;9.88;;
84266;SDS011;74414;51.098;13.716;2024-02-26T04:44:51;22.58;;;10.82;;
84266;SDS011;74414;51.098;13.716;2024-02-26T04:47:17;18.73;;;10.17;;
84266;SDS011;74414;51.098;13.716;2024-02-26T04:49:42;21.13;;;9.80;;
84266;SDS011;74414;51.098;13.716;2024-02-26T04:52:07;20.90;;;9.77;;
84266;SDS011;74414;51.098;13.716;2024-02-26T04:54:32;19.23;;;10.07;;
84266;SDS011;74414;51.098;13.716;2024-02-26T04:56:58;21.33;;;10.02;;
84266;SDS011;74414;51.098;13.716;2024-02-26T04:59:24;22.35;;;10.40;;
84266;SDS011;74414;51.098;13.716;2024-02-26T05:01:49;21.43;;;10.77;;
84266;SDS011;74414;51.098;13.716;2024-02-26T05:04:16;18.10;;;9.45;;
84266;SDS011;74414;51.098;13.716;2024-02-26T05:06:42;18.02;;;9.98;;
84266;SDS011;74414;51.098;13.716;2024-02-26T05:09:07;19.30;;;10.50;;
84266;SDS011;74414;51.098;13.716;2024-02-26T05:11:32;20.40;;;9.95;;
84266;SDS011;74414;51.098;13.716;2024-02-26T05:13:58;20.00;;;11.07;;
84266;SDS011;74414;51.098;13.716;2024-02-26T05:16:25;22.17;;;10.48;;
84266;SDS011;74414;51.098;13.716;2024-02-26T05:18:52;19.98;;;10.35;;
84266;SDS011;74414;51.098;13.716;2024-02-26T05:21:17;18.48;;;10.68;;
84266;SDS011;74414;51.098;13.716;2024-02-26T05:23:43;18.23;;;9.80;;
84266;SDS011;74414;51.098;13.716;2024-02-26T05:26:09;24.02;;;9.98;;
84266;SDS011;74414;51.098;13.716;2024-02-26T05:28:34;18.70;;;9.52;;
84266;SDS011;74414;51.098;13.716;2024-02-26T05:31:00;23.42;;;10.23;;
84266;SDS011;74414;51.098;13.716;2024-02-26T05:33:25;19.23;;;10.30;;
84266;SDS011;74414;51.098;13.716;2024-02-26T05:35:51;21.67;;;10.48;;
84266;SDS011;74414;51.098;13.716;2024-02-26T05:38:16;21.23;;;10.65;;
84266;SDS011;74414;51.098;13.716;2024-02-26T05:40:41;23.23;;;10.83;;
84266;SDS011;74414;51.098;13.716;2024-02-26T05:43:06;26.30;;;11.93;;
84266;SDS011;74414;51.098;13.716;2024-02-26T05:45:32;24.40;;;11.77;;
84266;SDS011;74414;51.098;13.716;2024-02-26T05:47:58;20.48;;;11.25;;
84266;SDS011;74414;51.098;13.716;2024-02-26T05:50:23;22.67;;;11.52;;
84266;SDS011;74414;51.098;13.716;2024-02-26T05:52:48;22.90;;;11.47;;
84266;SDS011;74414;51.098;13.716;2024-02-26T05:55:14;22.40;;;11.17;;
84266;SDS011;74414;51.098;13.716;2024-02-26T05:57:39;24.33;;;12.32;;
84266;SDS011;74414;51.098;13.716;2024-02-26T06:00:05;20.85;;;11.13;;
84266;SDS011;74414;51.098;13.716;2024-02-26T06:02:30;25.92;;;11.70;;
84266;SDS011;74414;51.098;13.716;2024-02-26T06:04:56;18.70;;;11.00;;
84266;SDS011;74414;51.098;13.716;2024-02-26T06:07:22;19.73;;;10.88;;
84266;SDS011;74414;51.098;13.716;2024-02-26T06:09:48;21.83;;;11.40;;
84266;SDS011;74414;51.098;13.716;2024-02-26T06:12:13;21.77;;;10.73;;
84266;SDS011;74414;51.098;13.716;2024-02-26T06:14:39;22.35;;;11.32;;
84266;SDS011;74414;51.098;13.716;2024-02-26T06:17:04;25.17;;;11.23;;
84266;SDS011;74414;51.098;13.716;2024-02-26T06:19:29;28.57;;;12.23;;
84266;SDS011;74414;51.098;13.716;2024-02-26T06:21:54;25.93;;;12.27;;
84266;SDS011;74414;51.098;13.716;2024-02-26T06:24:20;29.10;;;14.97;;
84266;SDS011;74414;51.098;13.716;2024-02-26T06:26:47;31.13;;;15.25;;
84266;SDS011;74414;51.098;13.716;2024-02-26T06:29:12;29.80;;;14.63;;
84266;SDS011;74414;51.098;13.716;2024-02-26T06:31:38;33.78;;;16.02;;
84266;SDS011;74414;51.098;13.716;2024-02-26T06:34:03;29.45;;;15.25;;
84266;SDS011;74414;51.098;13.716;2024-02-26T06:36:29;19.95;;;11.68;;
84266;SDS011;74414;51.098;13.716;2024-02-26T06:38:56;20.83;;;10.70;;
84266;SDS011;74414;51.098;13.716;2024-02-26T06:41:21;16.67;;;9.73;;
84266;SDS011;74414;51.098;13.716;2024-02-26T06:43:52;16.45;;;10.57;;
84266;SDS011;74414;51.098;13.716;2024-02-26T06:46:17;15.17;;;10.20;;
84266;SDS011;74414;51.098;13.716;2024-02-26T06:48:42;13.60;;;10.07;;
84266;SDS011;74414;51.098;13.716;2024-02-26T06:51:07;14.47;;;9.43;;
84266;SDS011;74414;51.098;13.716;2024-02-26T06:53:33;15.10;;;9.53;;
84266;SDS011;74414;51.098;13.716;2024-02-26T06:55:58;16.10;;;9.20;;
84266;SDS011;74414;51.098;13.716;2024-02-26T06:58:23;15.95;;;10.18;;
84266;SDS011;74414;51.098;13.716;2024-02-26T07:00:49;15.88;;;10.35;;
84266;SDS011;74414;51.098;13.716;2024-02-26T07:03:14;14.63;;;9.23;;
84266;SDS011;74414;51.098;13.716;2024-02-26T07:05:40;14.60;;;8.63;;
84266;SDS011;74414;51.098;13.716;2024-02-26T07:08:05;18.87;;;9.60;;
84266;SDS011;74414;51.098;13.716;2024-02-26T07:10:31;16.08;;;8.80;;
84266;SDS011;74414;51.098;13.716;2024-02-26T07:12:56;13.17;;;8.07;;
84266;SDS011;74414;51.098;13.716;2024-02-26T07:15:22;13.37;;;8.67;;
84266;SDS011;74414;51.098;13.716;2024-02-26T07:17:47;14.93;;;8.60;;
84266;SDS011;74414;51.098;13.716;2024-02-26T07:20:14;14.90;;;8.20;;
84266;SDS011;74414;51.098;13.716;2024-02-26T07:22:39;14.63;;;8.35;;
84266;SDS011;74414;51.098;13.716;2024-02-26T07:25:06;13.38;;;7.85;;
84266;SDS011;74414;51.098;13.716;2024-02-26T07:27:33;13.18;;;8.32;;
84266;SDS011;74414;51.098;13.716;2024-02-26T07:29:59;13.90;;;8.30;;
84266;SDS011;74414;51.098;13.716;2024-02-26T07:32:24;14.02;;;7.80;;
84266;SDS011;74414;51.098;13.716;2024-02-26T07:34:50;14.57;;;8.73;;
84266;SDS011;74414;51.098;13.716;2024-02-26T07:37:15;12.70;;;8.02;;
84266;SDS011;74414;51.098;13.716;2024-02-26T07:39:40;15.98;;;9.07;;
84266;SDS011;74414;51.098;13.716;2024-02-26T07:42:05;12.13;;;8.07;;
84266;SDS011;74414;51.098;13.716;2024-02-26T07:44:32;11.30;;;7.85;;
84266;SDS011;74414;51.098;13.716;2024-02-26T07:46:58;14.15;;;8.10;;
84266;SDS011;74414;51.098;13.716;2024-02-26T07:49:23;11.73;;;8.18;;
84266;SDS011;74414;51.098;13.716;2024-02-26T07:51:49;12.33;;;7.97;;
84266;SDS011;74414;51.098;13.716;2024-02-26T07:54:14;13.13;;;8.65;;
84266;SDS011;74414;51.098;13.716;2024-02-26T07:56:41;26.25;;;14.48;;
84266;SDS011;74414;51.098;13.716;2024-02-26T07:59:06;21.73;;;12.10;;
84266;SDS011;74414;51.098;13.716;2024-02-26T08:01:32;18.60;;;9.30;;
84266;SDS011;74414;51.098;13.716;2024-02-26T08:03:58;17.98;;;11.05;;
84266;SDS011;74414;51.098;13.716;2024-02-26T08:06:24;11.25;;;7.45;;
84266;SDS011;74414;51.098;13.716;2024-02-26T08:08:50;12.98;;;7.47;;
84266;SDS011;74414;51.098;13.716;2024-02-26T08:11:15;11.38;;;7.20;;
84266;SDS011;74414;51.098;13.716;2024-02-26T08:13:41;11.15;;;7.68;;
84266;SDS011;74414;51.098;13.716;2024-02-26T08:16:06;10.27;;;6.78;;
84266;SDS011;74414;51.098;13.716;2024-02-26T08:18:32;13.63;;;6.90;;
84266;SDS011;74414;51.098;13.716;2024-02-26T08:20:57;15.03;;;8.20;;
84266;SDS011;74414;51.098;13.716;2024-02-26T08:23:22;11.00;;;7.20;;
84266;SDS011;74414;51.098;13.716;2024-02-26T08:25:48;11.35;;;6.55;;
84266;SDS011;74414;51.098;13.716;2024-02-26T08:28:14;12.85;;;7.25;;
84266;SDS011;74414;51.098;13.716;2024-02-26T08:30:39;11.60;;;7.60;;
84266;SDS011;74414;51.098;13.716;2024-02-26T08:33:04;10.97;;;6.67;;
84266;SDS011;74414;51.098;13.716;2024-02-26T08:35:30;11.27;;;6.83;;
84266;SDS011;74414;51.098;13.716;2024-02-26T08:37:55;10.03;;;6.03;;
84266;SDS011;74414;51.098;13.716;2024-02-26T08:40:20;10.88;;;6.32;;
84266;SDS011;74414;51.098;13.716;2024-02-26T08:42:46;13.45;;;6.63;;
84266;SDS011;74414;51.098;13.716;2024-02-26T08:45:11;9.88;;;6.15;;
84266;SDS011;74414;51.098;13.716;2024-02-26T08:47:37;10.40;;;6.13;;
84266;SDS011;74414;51.098;13.716;2024-02-26T08:50:03;9.93;;;5.75;;
84266;SDS011;74414;51.098;13.716;2024-02-26T08:52:29;11.05;;;6.43;;
84266;SDS011;74414;51.098;13.716;2024-02-26T08:54:54;12.67;;;6.40;;
84266;SDS011;74414;51.098;13.716;2024-02-26T08:57:20;11.48;;;6.32;;
84266;SDS011;74414;51.098;13.716;2024-02-26T08:59:45;11.50;;;6.25;;
84266;SDS011;74414;51.098;13.716;2024-02-26T09:02:11;9.88;;;5.70;;
84266;SDS011;74414;51.098;13.716;2024-02-26T09:04:36;10.47;;;5.10;;
84266;SDS011;74414;51.098;13.716;2024-02-26T09:07:01;10.90;;;5.43;;
84266;SDS011;74414;51.098;13.716;2024-02-26T09:09:27;11.05;;;6.40;;
84266;SDS011;74414;51.098;13.716;2024-02-26T09:11:52;10.15;;;5.65;;
84266;SDS011;74414;51.098;13.716;2024-02-26T09:14:19;10.55;;;5.65;;
84266;SDS011;74414;51.098;13.716;2024-02-26T09:16:45;7.20;;;5.30;;
84266;SDS011;74414;51.098;13.716;2024-02-26T09:19:10;9.25;;;5.25;;
84266;SDS011;74414;51.098;13.716;2024-02-26T09:21:35;9.63;;;5.47;;
84266;SDS011;74414;51.098;13.716;2024-02-26T09:24:01;9.32;;;5.72;;
84266;SDS011;74414;51.098;13.716;2024-02-26T09:26:26;8.25;;;5.22;;
84266;SDS011;74414;51.098;13.716;2024-02-26T09:28:52;10.83;;;6.07;;
84266;SDS011;74414;51.098;13.716;2024-02-26T09:31:17;12.52;;;5.75;;
84266;SDS011;74414;51.098;13.716;2024-02-26T09:33:43;9.27;;;5.30;;
84266;SDS011;74414;51.098;13.716;2024-02-26T09:36:09;13.93;;;6.03;;
84266;SDS011;74414;51.098;13.716;2024-02-26T09:38:36;9.15;;;5.18;;
84266;SDS011;74414;51.098;13.716;2024-02-26T09:41:03;8.60;;;4.65;;
84266;SDS011;74414;51.098;13.716;2024-02-26T09:43:34;8.77;;;5.65;;
84266;SDS011;74414;51.098;13.716;2024-02-26T09:46:00;11.45;;;6.40;;
84266;SDS011;74414;51.098;13.716;2024-02-26T09:48:25;12.25;;;6.68;;
84266;SDS011;74414;51.098;13.716;2024-02-26T09:50:50;9.80;;;5.63;;
84266;SDS011;74414;51.098;13.716;2024-02-26T09:53:16;10.98;;;5.82;;
84266;SDS011;74414;51.098;13.716;2024-02-26T09:55:43;10.40;;;6.65;;
84266;SDS011;74414;51.098;13.716;2024-02-26T09:58:08;11.35;;;6.53;;
84266;SDS011;74414;51.098;13.716;2024-02-26T10:00:38;9.00;;;5.78;;
84266;SDS011;74414;51.098;13.716;2024-02-26T10:03:06;10.88;;;5.88;;
84266;SDS011;74414;51.098;13.716;2024-02-26T10:05:38;13.50;;;6.88;;
84266;SDS011;74414;51.098;13.716;2024-02-26T10:08:05;10.25;;;5.75;;
84266;SDS011;74414;51.098;13.716;2024-02-26T10:10:31;8.98;;;5.38;;
84266;SDS011;74414;51.098;13.716;2024-02-26T10:13:00;9.23;;;5.38;;
84266;SDS011;74414;51.098;13.716;2024-02-26T10:15:26;8.45;;;5.65;;
84266;SDS011;74414;51.098;13.716;2024-02-26T10:17:52;9.10;;;5.18;;
84266;SDS011;74414;51.098;13.716;2024-02-26T10:20:18;11.35;;;6.28;;
84266;SDS011;74414;51.098;13.716;2024-02-26T10:22:46;11.23;;;5.72;;
84266;SDS011;74414;51.098;13.716;2024-02-26T10:25:12;11.77;;;6.38;;
84266;SDS011;74414;51.098;13.716;2024-02-26T10:27:39;8.63;;;5.13;;
84266;SDS011;74414;51.098;13.716;2024-02-26T10:30:19;9.93;;;5.60;;
84266;SDS011;74414;51.098;13.716;2024-02-26T10:32:46;9.45;;;5.68;;
84266;SDS011;74414;51.098;13.716;2024-02-26T10:35:15;8.55;;;5.20;;
84266;SDS011;74414;51.098;13.716;2024-02-26T10:37:42;11.05;;;5.35;;
84266;SDS011;74414;51.098;13.716;2024-02-26T10:40:11;13.40;;;5.50;;
84266;SDS011;74414;51.098;13.716;2024-02-26T10:42:37;8.57;;;5.78;;
84266;SDS011;74414;51.098;13.716;2024-02-26T10:45:06;8.73;;;5.00;;
84266;SDS011;74414;51.098;13.716;2024-02-26T10:50:00;8.13;;;5.20;;
84266;SDS011;74414;51.098;13.716;2024-02-26T10:52:29;10.63;;;5.55;;
84266;SDS011;74414;51.098;13.716;2024-02-26T10:54:57;10.20;;;5.13;;
84266;SDS011;74414;51.098;13.716;2024-02-26T10:57:27;8.65;;;5.32;;
84266;SDS011;74414;51.098;13.716;2024-02-26T10:59:57;9.23;;;5.38;;
84266;SDS011;74414;51.098;13.716;2024-02-26T11:02:24;8.55;;;4.90;;
84266;SDS011;74414;51.098;13.716;2024-02-26T11:04:50;17.95;;;6.32;;
84266;SDS011;74414;51.098;13.716;2024-02-26T11:07:16;7.93;;;5.17;;
84266;SDS011;74414;51.098;13.716;2024-02-26T11:09:43;7.07;;;5.20;;
84266;SDS011;74414;51.098;13.716;2024-02-26T11:12:11;10.02;;;5.45;;
84266;SDS011;74414;51.098;13.716;2024-02-26T11:14:39;10.88;;;5.70;;
84266;SDS011;74414;51.098;13.716;2024-02-26T11:17:08;9.48;;;5.93;;
84266;SDS011;74414;51.098;13.716;2024-02-26T11:19:34;8.68;;;5.03;;
84266;SDS011;74414;51.098;13.716;2024-02-26T11:22:04;13.98;;;6.13;;
84266;SDS011;74414;51.098;13.716;2024-02-26T11:24:30;9.20;;;5.43;;
84266;SDS011;74414;51.098;13.716;2024-02-26T11:26:57;7.28;;;5.22;;
84266;SDS011;74414;51.098;13.716;2024-02-26T11:29:37;10.82;;;4.80;;
84266;SDS011;74414;51.098;13.716;2024-02-26T11:32:06;8.23;;;4.53;;
84266;SDS011;74414;51.098;13.716;2024-02-26T11:34:32;10.25;;;5.75;;
84266;SDS011;74414;51.098;13.716;2024-02-26T11:36:57;7.25;;;4.68;;
84266;SDS011;74414;51.098;13.716;2024-02-26T11:39:34;8.73;;;4.93;;
84266;SDS011;74414;51.098;13.716;2024-02-26T11:42:07;10.85;;;5.30;;
84266;SDS011;74414;51.098;13.716;2024-02-26T11:44:33;10.35;;;5.50;;
84266;SDS011;74414;51.098;13.716;2024-02-26T11:47:00;9.38;;;4.90;;
84266;SDS011;74414;51.098;13.716;2024-02-26T11:49:34;9.15;;;4.65;;
84266;SDS011;74414;51.098;13.716;2024-02-26T11:52:00;8.52;;;5.32;;
84266;SDS011;74414;51.098;13.716;2024-02-26T12:00:02;7.13;;;5.13;;
84266;SDS011;74414;51.098;13.716;2024-02-26T12:02:40;7.70;;;5.30;;
84266;SDS011;74414;51.098;13.716;2024-02-26T12:05:10;8.88;;;5.38;;
84266;SDS011;74414;51.098;13.716;2024-02-26T12:07:42;8.68;;;4.93;;
84266;SDS011;74414;51.098;13.716;2024-02-26T12:10:56;9.10;;;5.57;;
84266;SDS011;74414;51.098;13.716;2024-02-26T12:13:07;8.13;;;5.18;;
84266;SDS011;74414;51.098;13.716;2024-02-26T12:15:37;11.65;;;5.55;;
84266;SDS011;74414;51.098;13.716;2024-02-26T12:18:09;7.35;;;5.53;;
84266;SDS011;74414;51.098;13.716;2024-02-26T12:20:37;8.40;;;5.28;;
84266;SDS011;74414;51.098;13.716;2024-02-26T12:23:03;8.50;;;4.68;;
84266;SDS011;74414;51.098;13.716;2024-02-26T12:25:32;5.93;;;4.45;;
84266;SDS011;74414;51.098;13.716;2024-02-26T12:27:58;9.57;;;5.20;;
84266;SDS011;74414;51.098;13.716;2024-02-26T12:30:24;8.75;;;5.03;;
84266;SDS011;74414;51.098;13.716;2024-02-26T12:32:51;7.78;;;4.95;;
84266;SDS011;74414;51.098;13.716;2024-02-26T12:35:26;7.25;;;4.53;;
84266;SDS011;74414;51.098;13.716;2024-02-26T12:37:53;8.52;;;5.15;;
84266;SDS011;74414;51.098;13.716;2024-02-26T12:40:19;6.72;;;4.97;;
84266;SDS011;74414;51.098;13.716;2024-02-26T12:42:45;8.38;;;5.03;;
84266;SDS011;74414;51.098;13.716;2024-02-26T12:45:11;7.55;;;5.03;;
84266;SDS011;74414;51.098;13.716;2024-02-26T12:47:38;6.72;;;4.72;;
84266;SDS011;74414;51.098;13.716;2024-02-26T12:50:04;8.80;;;5.50;;
84266;SDS011;74414;51.098;13.716;2024-02-26T12:52:31;10.20;;;5.80;;
84266;SDS011;74414;51.098;13.716;2024-02-26T12:54:58;9.48;;;5.32;;
84266;SDS011;74414;51.098;13.716;2024-02-26T12:57:23;7.25;;;4.97;;
84266;SDS011;74414;51.098;13.716;2024-02-26T12:59:49;9.73;;;4.97;;
84266;SDS011;74414;51.098;13.716;2024-02-26T13:02:16;7.47;;;4.75;;
84266;SDS011;74414;51.098;13.716;2024-02-26T13:04:41;9.23;;;5.82;;
84266;SDS011;74414;51.098;13.716;2024-02-26T13:07:07;9.32;;;5.43;;
84266;SDS011;74414;51.098;13.716;2024-02-26T13:09:33;7.05;;;4.78;;
84266;SDS011;74414;51.098;13.716;2024-02-26T13:12:03;9.82;;;6.60;;
84266;SDS011;74414;51.098;13.716;2024-02-26T13:14:30;12.35;;;5.85;;
84266;SDS011;74414;51.098;13.716;2024-02-26T13:16:59;8.65;;;5.30;;
84266;SDS011;74414;51.098;13.716;2024-02-26T13:19:25;10.02;;;7.43;;
84266;SDS011;74414;51.098;13.716;2024-02-26T13:21:53;9.95;;;6.28;;
84266;SDS011;74414;51.098;13.716;2024-02-26T13:24:19;10.07;;;6.05;;
84266;SDS011;74414;51.098;13.716;2024-02-26T13:26:45;9.65;;;5.43;;
84266;SDS011;74414;51.098;13.716;2024-02-26T13:29:20;7.97;;;5.15;;
84266;SDS011;74414;51.098;13.716;2024-02-26T13:31:45;9.80;;;5.53;;
84266;SDS011;74414;51.098;13.716;2024-02-26T13:34:15;8.35;;;5.57;;
84266;SDS011;74414;51.098;13.716;2024-02-26T13:36:49;8.70;;;5.00;;
84266;SDS011;74414;51.098;13.716;2024-02-26T13:39:21;9.37;;;5.67;;
84266;SDS011;74414;51.098;13.716;2024-02-26T13:41:47;9.82;;;6.45;;
84266;SDS011;74414;51.098;13.716;2024-02-26T13:44:12;9.37;;;5.50;;
84266;SDS011;74414;51.098;13.716;2024-02-26T13:46:37;8.10;;;5.87;;
84266;SDS011;74414;51.098;13.716;2024-02-26T13:49:03;9.45;;;5.10;;
84266;SDS011;74414;51.098;13.716;2024-02-26T13:51:28;8.50;;;5.20;;
84266;SDS011;74414;51.098;13.716;2024-02-26T13:54:00;10.35;;;5.05;;
84266;SDS011;74414;51.098;13.716;2024-02-26T13:56:25;7.73;;;4.83;;
84266;SDS011;74414;51.098;13.716;2024-02-26T13:58:51;7.43;;;5.13;;
84266;SDS011;74414;51.098;13.716;2024-02-26T14:01:16;7.70;;;5.47;;
84266;SDS011;74414;51.098;13.716;2024-02-26T14:03:41;7.87;;;4.73;;
84266;SDS011;74414;51.098;13.716;2024-02-26T14:06:07;9.10;;;5.67;;
84266;SDS011;74414;51.098;13.716;2024-02-26T14:08:32;9.10;;;5.30;;
84266;SDS011;74414;51.098;13.716;2024-02-26T14:10:58;5.95;;;4.45;;
84266;SDS011;74414;51.098;13.716;2024-02-26T14:13:25;8.57;;;4.38;;
84266;SDS011;74414;51.098;13.716;2024-02-26T14:15:50;7.07;;;4.63;;
84266;SDS011;74414;51.098;13.716;2024-02-26T14:18:15;9.05;;;4.68;;
84266;SDS011;74414;51.098;13.716;2024-02-26T14:20:41;7.70;;;4.57;;
84266;SDS011;74414;51.098;13.716;2024-02-26T14:23:06;8.93;;;4.57;;
84266;SDS011;74414;51.098;13.716;2024-02-26T14:25:32;9.63;;;5.30;;